sensor_id;sensor_type;location;lat;lon;timestamp;temperature;humidity
9849;DHT22;4963;51.444;6.528;2022-12-01T00:00:42;6.40;99.90
9849;DHT22;4963;51.444;6.528;2022-12-01T00:03:09;6.30;99.90
9849;DHT22;4963;51.444;6.528;2022-12-01T00:05:36;6.30;99.90
9849;DHT22;4963;51.444;6.528;2022-12-01T00:08:03;6.30;99.90
9849;DHT22;4963;51.444;6.528;2022-12-01T00:10:32;6.40;99.90
9849;DHT22;4963;51.444;6.528;2022-12-01T00:13:00;6.30;99.90
9849;DHT22;4963;51.444;6.528;2022-12-01T00:15:29;6.30;99.90
9849;DHT22;4963;51.444;6.528;2022-12-01T00:17:57;6.40;99.90
9849;DHT22;4963;51.444;6.528;2022-12-01T00:20:24;6.40;99.90
9849;DHT22;4963;51.444;6.528;2022-12-01T00:22:50;6.40;99.90
9849;DHT22;4963;51.444;6.528;2022-12-01T00:25:18;6.40;99.90
9849;DHT22;4963;51.444;6.528;2022-12-01T00:27:46;6.40;99.90
9849;DHT22;4963;51.444;6.528;2022-12-01T00:30:16;6.40;99.90
9849;DHT22;4963;51.444;6.528;2022-12-01T00:32:43;6.40;99.90
9849;DHT22;4963;51.444;6.528;2022-12-01T00:35:11;6.40;99.90
9849;DHT22;4963;51.444;6.528;2022-12-01T00:37:38;6.30;99.90
9849;DHT22;4963;51.444;6.528;2022-12-01T00:40:06;6.30;99.90
9849;DHT22;4963;51.444;6.528;2022-12-01T00:42:34;6.30;99.90
9849;DHT22;4963;51.444;6.528;2022-12-01T00:45:00;6.20;99.90
9849;DHT22;4963;51.444;6.528;2022-12-01T00:47:28;6.20;99.90
9849;DHT22;4963;51.444;6.528;2022-12-01T00:49:55;6.30;99.90
9849;DHT22;4963;51.444;6.528;2022-12-01T00:52:22;6.30;99.90
9849;DHT22;4963;51.444;6.528;2022-12-01T00:54:49;6.40;99.90
9849;DHT22;4963;51.444;6.528;2022-12-01T00:57:16;6.40;99.90
9849;DHT22;4963;51.444;6.528;2022-12-01T00:59:42;6.30;99.90
9849;DHT22;4963;51.444;6.528;2022-12-01T01:02:09;6.30;99.90
9849;DHT22;4963;51.444;6.528;2022-12-01T01:04:37;6.30;99.90
9849;DHT22;4963;51.444;6.528;2022-12-01T01:07:04;6.30;99.90
9849;DHT22;4963;51.444;6.528;2022-12-01T01:09:31;6.30;99.90
9849;DHT22;4963;51.444;6.528;2022-12-01T01:11:58;6.30;99.90
9849;DHT22;4963;51.444;6.528;2022-12-01T01:14:25;6.30;99.90
9849;DHT22;4963;51.444;6.528;2022-12-01T01:16:52;6.20;99.90
9849;DHT22;4963;51.444;6.528;2022-12-01T01:19:21;6.30;99.90
9849;DHT22;4963;51.444;6.528;2022-12-01T01:21:49;6.30;99.90
9849;DHT22;4963;51.444;6.528;2022-12-01T01:24:16;6.30;99.90
9849;DHT22;4963;51.444;6.528;2022-12-01T01:26:43;6.40;99.90
9849;DHT22;4963;51.444;6.528;2022-12-01T01:29:10;6.30;99.90
9849;DHT22;4963;51.444;6.528;2022-12-01T01:31:37;6.40;99.90
9849;DHT22;4963;51.444;6.528;2022-12-01T01:34:04;6.40;99.90
9849;DHT22;4963;51.444;6.528;2022-12-01T01:36:31;6.40;99.90
9849;DHT22;4963;51.444;6.528;2022-12-01T01:38:59;6.30;99.90
9849;DHT22;4963;51.444;6.528;2022-12-01T01:41:26;6.30;99.90
9849;DHT22;4963;51.444;6.528;2022-12-01T01:43:55;6.30;99.90
9849;DHT22;4963;51.444;6.528;2022-12-01T01:46:25;6.30;99.90
9849;DHT22;4963;51.444;6.528;2022-12-01T01:48:54;6.20;99.90
9849;DHT22;4963;51.444;6.528;2022-12-01T01:51:26;6.20;99.90
9849;DHT22;4963;51.444;6.528;2022-12-01T01:53:57;6.20;99.90
9849;DHT22;4963;51.444;6.528;2022-12-01T01:56:27;6.30;99.90
9849;DHT22;4963;51.444;6.528;2022-12-01T01:58:54;6.30;99.90
9849;DHT22;4963;51.444;6.528;2022-12-01T02:01:21;6.30;99.90
9849;DHT22;4963;51.444;6.528;2022-12-01T02:03:50;6.30;99.90
9849;DHT22;4963;51.444;6.528;2022-12-01T02:06:18;6.30;99.90
9849;DHT22;4963;51.444;6.528;2022-12-01T02:08:45;6.20;99.90
9849;DHT22;4963;51.444;6.528;2022-12-01T02:14:33;6.20;99.90
9849;DHT22;4963;51.444;6.528;2022-12-01T02:17:13;6.20;99.90
9849;DHT22;4963;51.444;6.528;2022-12-01T02:20:06;6.10;99.90
9849;DHT22;4963;51.444;6.528;2022-12-01T02:22:45;6.10;99.90
9849;DHT22;4963;51.444;6.528;2022-12-01T02:25:23;6.10;99.90
9849;DHT22;4963;51.444;6.528;2022-12-01T02:28:22;6.20;99.90
9849;DHT22;4963;51.444;6.528;2022-12-01T02:30:55;6.10;99.90
9849;DHT22;4963;51.444;6.528;2022-12-01T02:33:27;6.20;99.90
9849;DHT22;4963;51.444;6.528;2022-12-01T02:36:00;6.20;99.90
9849;DHT22;4963;51.444;6.528;2022-12-01T02:38:32;6.20;99.90
9849;DHT22;4963;51.444;6.528;2022-12-01T02:41:07;6.20;99.90
9849;DHT22;4963;51.444;6.528;2022-12-01T02:43:41;6.20;99.90
9849;DHT22;4963;51.444;6.528;2022-12-01T02:46:13;6.20;99.90
9849;DHT22;4963;51.444;6.528;2022-12-01T02:48:44;6.20;99.90
9849;DHT22;4963;51.444;6.528;2022-12-01T02:51:15;6.20;99.90
9849;DHT22;4963;51.444;6.528;2022-12-01T02:53:43;6.20;99.90
9849;DHT22;4963;51.444;6.528;2022-12-01T02:56:12;6.20;99.90
9849;DHT22;4963;51.444;6.528;2022-12-01T02:58:41;6.10;99.90
9849;DHT22;4963;51.444;6.528;2022-12-01T03:01:23;6.10;99.90
9849;DHT22;4963;51.444;6.528;2022-12-01T03:04:12;6.10;99.90
9849;DHT22;4963;51.444;6.528;2022-12-01T03:06:49;6.00;99.90
9849;DHT22;4963;51.444;6.528;2022-12-01T03:09:25;6.00;99.90
9849;DHT22;4963;51.444;6.528;2022-12-01T03:12:02;6.00;99.90
9849;DHT22;4963;51.444;6.528;2022-12-01T03:14:38;6.00;99.90
9849;DHT22;4963;51.444;6.528;2022-12-01T03:17:12;6.00;99.90
9849;DHT22;4963;51.444;6.528;2022-12-01T03:19:43;5.90;99.90
9849;DHT22;4963;51.444;6.528;2022-12-01T03:22:12;6.00;99.90
9849;DHT22;4963;51.444;6.528;2022-12-01T03:24:42;6.00;99.90
9849;DHT22;4963;51.444;6.528;2022-12-01T03:27:13;6.00;99.90
9849;DHT22;4963;51.444;6.528;2022-12-01T03:29:43;6.00;99.90
9849;DHT22;4963;51.444;6.528;2022-12-01T03:32:16;6.00;99.90
9849;DHT22;4963;51.444;6.528;2022-12-01T03:34:47;6.00;99.90
9849;DHT22;4963;51.444;6.528;2022-12-01T03:37:19;6.00;99.90
9849;DHT22;4963;51.444;6.528;2022-12-01T03:39:48;6.10;99.90
9849;DHT22;4963;51.444;6.528;2022-12-01T03:42:18;6.00;99.90
9849;DHT22;4963;51.444;6.528;2022-12-01T03:44:49;6.00;99.90
9849;DHT22;4963;51.444;6.528;2022-12-01T03:47:21;6.00;99.90
9849;DHT22;4963;51.444;6.528;2022-12-01T03:49:50;6.00;99.90
9849;DHT22;4963;51.444;6.528;2022-12-01T03:52:26;6.10;99.90
9849;DHT22;4963;51.444;6.528;2022-12-01T03:55:05;6.00;99.90
9849;DHT22;4963;51.444;6.528;2022-12-01T03:57:36;6.00;99.90
9849;DHT22;4963;51.444;6.528;2022-12-01T04:00:06;6.00;99.90
9849;DHT22;4963;51.444;6.528;2022-12-01T04:02:34;6.00;99.90
9849;DHT22;4963;51.444;6.528;2022-12-01T04:05:03;6.00;99.90
9849;DHT22;4963;51.444;6.528;2022-12-01T04:07:30;5.90;99.90
9849;DHT22;4963;51.444;6.528;2022-12-01T04:09:56;6.00;99.90
9849;DHT22;4963;51.444;6.528;2022-12-01T04:12:23;6.00;99.90
9849;DHT22;4963;51.444;6.528;2022-12-01T04:14:55;6.00;99.90
9849;DHT22;4963;51.444;6.528;2022-12-01T04:17:22;6.00;99.90
9849;DHT22;4963;51.444;6.528;2022-12-01T04:19:51;6.10;99.90
9849;DHT22;4963;51.444;6.528;2022-12-01T04:22:17;6.10;99.90
9849;DHT22;4963;51.444;6.528;2022-12-01T04:24:44;6.10;99.90
9849;DHT22;4963;51.444;6.528;2022-12-01T04:27:11;6.10;99.90
9849;DHT22;4963;51.444;6.528;2022-12-01T04:29:38;6.00;99.90
9849;DHT22;4963;51.444;6.528;2022-12-01T04:32:05;6.00;99.90
9849;DHT22;4963;51.444;6.528;2022-12-01T04:34:31;6.00;99.90
9849;DHT22;4963;51.444;6.528;2022-12-01T04:37:00;6.00;99.90
9849;DHT22;4963;51.444;6.528;2022-12-01T04:39:26;6.10;99.90
9849;DHT22;4963;51.444;6.528;2022-12-01T04:41:53;6.10;99.90
9849;DHT22;4963;51.444;6.528;2022-12-01T04:44:20;6.00;99.90
9849;DHT22;4963;51.444;6.528;2022-12-01T04:46:47;6.00;99.90
9849;DHT22;4963;51.444;6.528;2022-12-01T04:49:13;6.00;99.90
9849;DHT22;4963;51.444;6.528;2022-12-01T04:51:40;6.00;99.90
9849;DHT22;4963;51.444;6.528;2022-12-01T04:54:08;6.00;99.90
9849;DHT22;4963;51.444;6.528;2022-12-01T04:56:35;6.00;99.90
9849;DHT22;4963;51.444;6.528;2022-12-01T04:59:02;5.90;99.90
9849;DHT22;4963;51.444;6.528;2022-12-01T05:01:29;5.90;99.90
9849;DHT22;4963;51.444;6.528;2022-12-01T05:03:56;5.90;99.90
9849;DHT22;4963;51.444;6.528;2022-12-01T05:06:24;5.90;99.90
9849;DHT22;4963;51.444;6.528;2022-12-01T05:08:54;5.80;99.90
9849;DHT22;4963;51.444;6.528;2022-12-01T05:11:23;5.80;99.90
9849;DHT22;4963;51.444;6.528;2022-12-01T05:13:50;5.80;99.90
9849;DHT22;4963;51.444;6.528;2022-12-01T05:16:19;5.90;99.90
9849;DHT22;4963;51.444;6.528;2022-12-01T05:18:50;5.80;99.90
9849;DHT22;4963;51.444;6.528;2022-12-01T05:21:37;5.80;99.90
9849;DHT22;4963;51.444;6.528;2022-12-01T05:24:03;5.80;99.90
9849;DHT22;4963;51.444;6.528;2022-12-01T05:26:31;5.80;99.90
9849;DHT22;4963;51.444;6.528;2022-12-01T05:28:58;5.80;99.90
9849;DHT22;4963;51.444;6.528;2022-12-01T05:31:25;5.70;99.90
9849;DHT22;4963;51.444;6.528;2022-12-01T05:33:52;5.70;99.90
9849;DHT22;4963;51.444;6.528;2022-12-01T05:36:18;5.80;99.90
9849;DHT22;4963;51.444;6.528;2022-12-01T05:38:45;5.80;99.90
9849;DHT22;4963;51.444;6.528;2022-12-01T05:41:12;5.80;99.90
9849;DHT22;4963;51.444;6.528;2022-12-01T05:43:40;5.80;99.90
9849;DHT22;4963;51.444;6.528;2022-12-01T05:46:07;5.80;99.90
9849;DHT22;4963;51.444;6.528;2022-12-01T05:48:34;5.90;99.90
9849;DHT22;4963;51.444;6.528;2022-12-01T05:51:06;5.80;99.90
9849;DHT22;4963;51.444;6.528;2022-12-01T05:53:33;5.80;99.90
9849;DHT22;4963;51.444;6.528;2022-12-01T05:56:00;5.80;99.90
9849;DHT22;4963;51.444;6.528;2022-12-01T05:58:27;5.90;99.90
9849;DHT22;4963;51.444;6.528;2022-12-01T06:00:55;5.80;99.90
9849;DHT22;4963;51.444;6.528;2022-12-01T06:03:22;5.90;99.90
9849;DHT22;4963;51.444;6.528;2022-12-01T06:05:49;5.90;99.90
9849;DHT22;4963;51.444;6.528;2022-12-01T06:08:15;5.90;99.90
9849;DHT22;4963;51.444;6.528;2022-12-01T06:10:43;5.90;99.90
9849;DHT22;4963;51.444;6.528;2022-12-01T06:13:10;5.90;99.90
9849;DHT22;4963;51.444;6.528;2022-12-01T06:15:37;5.90;99.90
9849;DHT22;4963;51.444;6.528;2022-12-01T06:18:05;5.90;99.90
9849;DHT22;4963;51.444;6.528;2022-12-01T06:20:32;5.90;99.90
9849;DHT22;4963;51.444;6.528;2022-12-01T06:22:58;5.90;99.90
9849;DHT22;4963;51.444;6.528;2022-12-01T06:25:25;6.00;99.90
9849;DHT22;4963;51.444;6.528;2022-12-01T06:27:54;5.90;99.90
9849;DHT22;4963;51.444;6.528;2022-12-01T06:30:21;5.90;99.90
9849;DHT22;4963;51.444;6.528;2022-12-01T06:32:48;5.90;99.90
9849;DHT22;4963;51.444;6.528;2022-12-01T06:35:16;5.90;99.90
9849;DHT22;4963;51.444;6.528;2022-12-01T06:37:43;5.90;99.90
9849;DHT22;4963;51.444;6.528;2022-12-01T06:40:10;5.90;99.90
9849;DHT22;4963;51.444;6.528;2022-12-01T06:42:37;5.80;99.90
9849;DHT22;4963;51.444;6.528;2022-12-01T06:45:05;5.80;99.90
9849;DHT22;4963;51.444;6.528;2022-12-01T06:47:32;5.80;99.90
9849;DHT22;4963;51.444;6.528;2022-12-01T06:49:59;5.90;99.90
9849;DHT22;4963;51.444;6.528;2022-12-01T06:52:27;6.00;99.90
9849;DHT22;4963;51.444;6.528;2022-12-01T06:54:54;6.00;99.90
9849;DHT22;4963;51.444;6.528;2022-12-01T06:57:21;6.00;99.90
9849;DHT22;4963;51.444;6.528;2022-12-01T06:59:47;6.00;99.90
9849;DHT22;4963;51.444;6.528;2022-12-01T07:02:14;6.00;99.90
9849;DHT22;4963;51.444;6.528;2022-12-01T07:04:41;6.00;99.90
9849;DHT22;4963;51.444;6.528;2022-12-01T07:07:09;5.90;99.90
9849;DHT22;4963;51.444;6.528;2022-12-01T07:09:38;5.90;99.90
9849;DHT22;4963;51.444;6.528;2022-12-01T07:12:05;5.90;99.90
9849;DHT22;4963;51.444;6.528;2022-12-01T07:14:32;5.90;99.90
9849;DHT22;4963;51.444;6.528;2022-12-01T07:16:58;5.80;99.90
9849;DHT22;4963;51.444;6.528;2022-12-01T07:19:25;5.80;99.90
9849;DHT22;4963;51.444;6.528;2022-12-01T07:21:52;5.80;99.90
9849;DHT22;4963;51.444;6.528;2022-12-01T07:24:19;5.90;99.90
9849;DHT22;4963;51.444;6.528;2022-12-01T07:26:47;5.90;99.90
9849;DHT22;4963;51.444;6.528;2022-12-01T07:29:14;5.90;99.90
9849;DHT22;4963;51.444;6.528;2022-12-01T07:31:40;5.90;99.90
9849;DHT22;4963;51.444;6.528;2022-12-01T07:34:10;5.90;99.90
9849;DHT22;4963;51.444;6.528;2022-12-01T07:36:37;5.90;99.90
9849;DHT22;4963;51.444;6.528;2022-12-01T07:39:04;5.90;99.90
9849;DHT22;4963;51.444;6.528;2022-12-01T07:41:32;5.90;99.90
9849;DHT22;4963;51.444;6.528;2022-12-01T07:44:01;5.90;99.90
9849;DHT22;4963;51.444;6.528;2022-12-01T07:46:28;5.90;99.90
9849;DHT22;4963;51.444;6.528;2022-12-01T07:48:55;5.90;99.90
9849;DHT22;4963;51.444;6.528;2022-12-01T07:51:23;5.90;99.90
9849;DHT22;4963;51.444;6.528;2022-12-01T07:53:51;5.90;99.90
9849;DHT22;4963;51.444;6.528;2022-12-01T07:56:19;5.90;99.90
9849;DHT22;4963;51.444;6.528;2022-12-01T07:58:46;5.90;99.90
9849;DHT22;4963;51.444;6.528;2022-12-01T08:01:15;6.00;99.90
9849;DHT22;4963;51.444;6.528;2022-12-01T08:03:42;5.90;99.90
9849;DHT22;4963;51.444;6.528;2022-12-01T08:06:10;6.00;99.90
9849;DHT22;4963;51.444;6.528;2022-12-01T08:08:39;6.00;99.90
9849;DHT22;4963;51.444;6.528;2022-12-01T08:11:08;6.00;99.90
9849;DHT22;4963;51.444;6.528;2022-12-01T08:13:35;6.10;99.90
9849;DHT22;4963;51.444;6.528;2022-12-01T08:16:03;6.10;99.90
9849;DHT22;4963;51.444;6.528;2022-12-01T08:18:33;6.00;99.90
9849;DHT22;4963;51.444;6.528;2022-12-01T08:21:00;6.00;99.90
9849;DHT22;4963;51.444;6.528;2022-12-01T08:23:26;5.90;99.90
9849;DHT22;4963;51.444;6.528;2022-12-01T08:25:53;5.90;99.90
9849;DHT22;4963;51.444;6.528;2022-12-01T08:28:21;5.90;99.90
9849;DHT22;4963;51.444;6.528;2022-12-01T08:30:48;5.90;99.90
9849;DHT22;4963;51.444;6.528;2022-12-01T08:33:15;5.90;99.90
9849;DHT22;4963;51.444;6.528;2022-12-01T08:35:43;5.90;99.90
9849;DHT22;4963;51.444;6.528;2022-12-01T08:38:10;5.90;99.90
9849;DHT22;4963;51.444;6.528;2022-12-01T08:40:37;5.90;99.90
9849;DHT22;4963;51.444;6.528;2022-12-01T08:43:04;5.90;99.90
9849;DHT22;4963;51.444;6.528;2022-12-01T08:45:30;5.90;99.90
9849;DHT22;4963;51.444;6.528;2022-12-01T08:47:57;6.00;99.90
9849;DHT22;4963;51.444;6.528;2022-12-01T08:50:24;6.00;99.90
9849;DHT22;4963;51.444;6.528;2022-12-01T08:52:53;6.00;99.90
9849;DHT22;4963;51.444;6.528;2022-12-01T08:55:20;6.00;99.90
9849;DHT22;4963;51.444;6.528;2022-12-01T08:57:47;6.00;99.90
9849;DHT22;4963;51.444;6.528;2022-12-01T09:00:14;6.00;99.90
9849;DHT22;4963;51.444;6.528;2022-12-01T09:02:41;5.90;99.90
9849;DHT22;4963;51.444;6.528;2022-12-01T09:05:08;6.00;99.90
9849;DHT22;4963;51.444;6.528;2022-12-01T09:07:35;5.90;99.90
9849;DHT22;4963;51.444;6.528;2022-12-01T09:10:04;5.90;99.90
9849;DHT22;4963;51.444;6.528;2022-12-01T09:12:31;5.90;99.90
9849;DHT22;4963;51.444;6.528;2022-12-01T09:14:58;5.90;99.90
9849;DHT22;4963;51.444;6.528;2022-12-01T09:17:25;5.90;99.90
9849;DHT22;4963;51.444;6.528;2022-12-01T09:19:51;6.00;99.90
9849;DHT22;4963;51.444;6.528;2022-12-01T09:22:18;5.90;99.90
9849;DHT22;4963;51.444;6.528;2022-12-01T09:24:45;5.90;99.90
9849;DHT22;4963;51.444;6.528;2022-12-01T09:27:13;5.90;99.90
9849;DHT22;4963;51.444;6.528;2022-12-01T09:29:40;6.00;99.90
9849;DHT22;4963;51.444;6.528;2022-12-01T09:32:06;6.00;99.90
9849;DHT22;4963;51.444;6.528;2022-12-01T09:34:33;6.00;99.90
9849;DHT22;4963;51.444;6.528;2022-12-01T09:37:00;6.00;99.90
9849;DHT22;4963;51.444;6.528;2022-12-01T09:39:27;6.00;99.90
9849;DHT22;4963;51.444;6.528;2022-12-01T09:41:56;6.00;99.90
9849;DHT22;4963;51.444;6.528;2022-12-01T09:44:38;6.10;99.90
9849;DHT22;4963;51.444;6.528;2022-12-01T09:47:10;6.00;99.90
9849;DHT22;4963;51.444;6.528;2022-12-01T09:49:49;6.00;99.90
9849;DHT22;4963;51.444;6.528;2022-12-01T09:52:18;6.10;99.90
9849;DHT22;4963;51.444;6.528;2022-12-01T09:54:46;6.10;99.90
9849;DHT22;4963;51.444;6.528;2022-12-01T09:57:20;6.10;99.90
9849;DHT22;4963;51.444;6.528;2022-12-01T09:59:50;6.00;99.90
9849;DHT22;4963;51.444;6.528;2022-12-01T10:02:25;6.00;99.90
9849;DHT22;4963;51.444;6.528;2022-12-01T10:04:55;6.00;99.90
9849;DHT22;4963;51.444;6.528;2022-12-01T10:07:25;6.00;99.90
9849;DHT22;4963;51.444;6.528;2022-12-01T10:09:56;6.00;99.90
9849;DHT22;4963;51.444;6.528;2022-12-01T10:12:24;6.00;99.90
9849;DHT22;4963;51.444;6.528;2022-12-01T10:15:04;6.10;99.90
9849;DHT22;4963;51.444;6.528;2022-12-01T10:17:41;6.00;99.90
9849;DHT22;4963;51.444;6.528;2022-12-01T10:20:14;6.00;99.90
9849;DHT22;4963;51.444;6.528;2022-12-01T10:23:06;6.00;99.90
9849;DHT22;4963;51.444;6.528;2022-12-01T10:25:41;6.00;99.90
9849;DHT22;4963;51.444;6.528;2022-12-01T10:28:27;6.00;99.90
9849;DHT22;4963;51.444;6.528;2022-12-01T10:31:02;6.00;99.90
9849;DHT22;4963;51.444;6.528;2022-12-01T10:33:34;6.00;99.90
9849;DHT22;4963;51.444;6.528;2022-12-01T10:36:01;6.00;99.90
9849;DHT22;4963;51.444;6.528;2022-12-01T10:38:30;6.10;99.90
9849;DHT22;4963;51.444;6.528;2022-12-01T10:40:59;6.00;99.90
9849;DHT22;4963;51.444;6.528;2022-12-01T10:43:30;6.00;99.90
9849;DHT22;4963;51.444;6.528;2022-12-01T10:46:00;6.10;99.90
9849;DHT22;4963;51.444;6.528;2022-12-01T10:48:31;6.00;99.90
9849;DHT22;4963;51.444;6.528;2022-12-01T10:51:14;6.00;99.90
9849;DHT22;4963;51.444;6.528;2022-12-01T10:53:41;6.10;99.90
9849;DHT22;4963;51.444;6.528;2022-12-01T10:56:11;6.10;99.90
9849;DHT22;4963;51.444;6.528;2022-12-01T10:58:42;6.00;99.90
9849;DHT22;4963;51.444;6.528;2022-12-01T11:01:18;6.00;99.90
9849;DHT22;4963;51.444;6.528;2022-12-01T11:03:50;6.10;99.90
9849;DHT22;4963;51.444;6.528;2022-12-01T11:06:21;6.10;99.90
9849;DHT22;4963;51.444;6.528;2022-12-01T11:08:52;6.10;99.90
9849;DHT22;4963;51.444;6.528;2022-12-01T11:11:27;6.10;99.90
9849;DHT22;4963;51.444;6.528;2022-12-01T11:13:54;6.10;99.90
9849;DHT22;4963;51.444;6.528;2022-12-01T11:16:36;6.10;99.90
9849;DHT22;4963;51.444;6.528;2022-12-01T11:19:24;6.10;99.90
9849;DHT22;4963;51.444;6.528;2022-12-01T11:21:53;6.10;99.90
9849;DHT22;4963;51.444;6.528;2022-12-01T11:24:39;6.10;99.90
9849;DHT22;4963;51.444;6.528;2022-12-01T11:27:15;6.10;99.90
9849;DHT22;4963;51.444;6.528;2022-12-01T11:29:42;6.10;99.90
9849;DHT22;4963;51.444;6.528;2022-12-01T11:32:20;6.10;99.90
9849;DHT22;4963;51.444;6.528;2022-12-01T11:34:51;6.10;99.90
9849;DHT22;4963;51.444;6.528;2022-12-01T11:37:21;6.10;99.90
9849;DHT22;4963;51.444;6.528;2022-12-01T11:39:49;6.10;99.90
9849;DHT22;4963;51.444;6.528;2022-12-01T11:42:22;6.10;99.90
9849;DHT22;4963;51.444;6.528;2022-12-01T11:44:52;6.10;99.90
9849;DHT22;4963;51.444;6.528;2022-12-01T11:47:23;6.00;99.90
9849;DHT22;4963;51.444;6.528;2022-12-01T11:49:53;6.00;99.90
9849;DHT22;4963;51.444;6.528;2022-12-01T11:52:24;6.10;99.90
9849;DHT22;4963;51.444;6.528;2022-12-01T11:55:01;6.00;99.90
9849;DHT22;4963;51.444;6.528;2022-12-01T11:57:29;6.00;99.90
9849;DHT22;4963;51.444;6.528;2022-12-01T11:59:57;6.00;99.90
9849;DHT22;4963;51.444;6.528;2022-12-01T12:02:33;6.00;99.90
9849;DHT22;4963;51.444;6.528;2022-12-01T12:05:36;5.90;99.90
9849;DHT22;4963;51.444;6.528;2022-12-01T12:08:12;6.00;99.90
9849;DHT22;4963;51.444;6.528;2022-12-01T12:10:49;5.90;99.90
9849;DHT22;4963;51.444;6.528;2022-12-01T12:13:39;6.00;99.90
9849;DHT22;4963;51.444;6.528;2022-12-01T12:16:16;6.00;99.90
9849;DHT22;4963;51.444;6.528;2022-12-01T12:19:00;6.00;99.90
9849;DHT22;4963;51.444;6.528;2022-12-01T12:21:32;6.00;99.90
9849;DHT22;4963;51.444;6.528;2022-12-01T12:24:26;6.00;99.90
9849;DHT22;4963;51.444;6.528;2022-12-01T12:27:05;5.90;99.90
9849;DHT22;4963;51.444;6.528;2022-12-01T12:29:47;5.90;99.90
9849;DHT22;4963;51.444;6.528;2022-12-01T12:32:33;5.80;99.90
9849;DHT22;4963;51.444;6.528;2022-12-01T12:35:07;5.80;99.90
9849;DHT22;4963;51.444;6.528;2022-12-01T12:37:48;5.80;99.90
9849;DHT22;4963;51.444;6.528;2022-12-01T12:40:27;5.80;99.90
9849;DHT22;4963;51.444;6.528;2022-12-01T12:43:06;5.80;99.90
9849;DHT22;4963;51.444;6.528;2022-12-01T12:45:44;5.80;99.90
9849;DHT22;4963;51.444;6.528;2022-12-01T12:48:22;5.80;99.90
9849;DHT22;4963;51.444;6.528;2022-12-01T12:50:59;5.80;99.90
9849;DHT22;4963;51.444;6.528;2022-12-01T12:53:39;5.80;99.90
9849;DHT22;4963;51.444;6.528;2022-12-01T12:56:10;5.90;99.90
9849;DHT22;4963;51.444;6.528;2022-12-01T12:58:42;5.90;99.90
9849;DHT22;4963;51.444;6.528;2022-12-01T13:01:16;5.90;99.90
9849;DHT22;4963;51.444;6.528;2022-12-01T13:03:50;6.00;99.90
9849;DHT22;4963;51.444;6.528;2022-12-01T13:06:31;5.90;99.90
9849;DHT22;4963;51.444;6.528;2022-12-01T13:09:01;5.90;99.90
9849;DHT22;4963;51.444;6.528;2022-12-01T13:11:31;5.90;99.90
9849;DHT22;4963;51.444;6.528;2022-12-01T13:14:01;5.90;99.90
9849;DHT22;4963;51.444;6.528;2022-12-01T13:16:32;5.90;99.90
9849;DHT22;4963;51.444;6.528;2022-12-01T13:19:04;5.90;99.90
9849;DHT22;4963;51.444;6.528;2022-12-01T13:21:38;5.90;99.90
9849;DHT22;4963;51.444;6.528;2022-12-01T13:24:06;5.90;99.90
9849;DHT22;4963;51.444;6.528;2022-12-01T13:26:36;5.90;99.90
9849;DHT22;4963;51.444;6.528;2022-12-01T13:29:04;5.90;99.90
9849;DHT22;4963;51.444;6.528;2022-12-01T13:31:41;6.00;99.90
9849;DHT22;4963;51.444;6.528;2022-12-01T13:34:19;5.90;99.90
9849;DHT22;4963;51.444;6.528;2022-12-01T13:36:49;6.00;99.90
9849;DHT22;4963;51.444;6.528;2022-12-01T13:39:18;6.00;99.90
9849;DHT22;4963;51.444;6.528;2022-12-01T13:41:56;6.00;99.90
9849;DHT22;4963;51.444;6.528;2022-12-01T13:44:25;6.10;99.90
9849;DHT22;4963;51.444;6.528;2022-12-01T13:46:56;6.10;99.90
9849;DHT22;4963;51.444;6.528;2022-12-01T13:49:45;6.10;99.90
9849;DHT22;4963;51.444;6.528;2022-12-01T13:52:28;6.10;99.90
9849;DHT22;4963;51.444;6.528;2022-12-01T13:55:01;6.10;99.90
9849;DHT22;4963;51.444;6.528;2022-12-01T13:57:31;6.10;99.90
9849;DHT22;4963;51.444;6.528;2022-12-01T14:00:05;6.10;99.90
9849;DHT22;4963;51.444;6.528;2022-12-01T14:02:33;6.10;99.90
9849;DHT22;4963;51.444;6.528;2022-12-01T14:05:42;6.10;99.90
9849;DHT22;4963;51.444;6.528;2022-12-01T14:08:15;6.10;99.90
9849;DHT22;4963;51.444;6.528;2022-12-01T14:10:52;6.00;99.90
9849;DHT22;4963;51.444;6.528;2022-12-01T14:13:19;6.00;99.90
9849;DHT22;4963;51.444;6.528;2022-12-01T14:15:54;6.10;99.90
9849;DHT22;4963;51.444;6.528;2022-12-01T14:18:30;6.10;99.90
9849;DHT22;4963;51.444;6.528;2022-12-01T14:20:58;6.10;99.90
9849;DHT22;4963;51.444;6.528;2022-12-01T14:23:29;6.10;99.90
9849;DHT22;4963;51.444;6.528;2022-12-01T14:26:04;6.10;99.90
9849;DHT22;4963;51.444;6.528;2022-12-01T14:29:07;6.10;99.90
9849;DHT22;4963;51.444;6.528;2022-12-01T14:32:04;6.10;99.90
9849;DHT22;4963;51.444;6.528;2022-12-01T14:34:31;6.10;99.90
9849;DHT22;4963;51.444;6.528;2022-12-01T14:37:04;6.00;99.90
9849;DHT22;4963;51.444;6.528;2022-12-01T14:39:35;6.00;99.90
9849;DHT22;4963;51.444;6.528;2022-12-01T14:42:10;6.10;99.90
9849;DHT22;4963;51.444;6.528;2022-12-01T14:45:00;6.10;99.90
9849;DHT22;4963;51.444;6.528;2022-12-01T14:47:32;6.00;99.90
9849;DHT22;4963;51.444;6.528;2022-12-01T14:50:08;6.10;99.90
9849;DHT22;4963;51.444;6.528;2022-12-01T14:52:40;6.10;99.90
9849;DHT22;4963;51.444;6.528;2022-12-01T14:55:14;6.10;99.90
9849;DHT22;4963;51.444;6.528;2022-12-01T14:57:45;6.10;99.90
9849;DHT22;4963;51.444;6.528;2022-12-01T15:00:15;6.10;99.90
9849;DHT22;4963;51.444;6.528;2022-12-01T15:02:46;6.10;99.90
9849;DHT22;4963;51.444;6.528;2022-12-01T15:05:15;6.00;99.90
9849;DHT22;4963;51.444;6.528;2022-12-01T15:07:49;6.00;99.90
9849;DHT22;4963;51.444;6.528;2022-12-01T15:10:21;6.00;99.90
9849;DHT22;4963;51.444;6.528;2022-12-01T15:12:49;6.00;99.90
9849;DHT22;4963;51.444;6.528;2022-12-01T15:15:18;6.00;99.90
9849;DHT22;4963;51.444;6.528;2022-12-01T15:17:45;6.00;99.90
9849;DHT22;4963;51.444;6.528;2022-12-01T15:20:31;6.00;99.90
9849;DHT22;4963;51.444;6.528;2022-12-01T15:23:00;6.00;99.90
9849;DHT22;4963;51.444;6.528;2022-12-01T15:25:30;6.00;99.90
9849;DHT22;4963;51.444;6.528;2022-12-01T15:28:11;6.10;99.90
9849;DHT22;4963;51.444;6.528;2022-12-01T15:30:39;6.00;99.90
9849;DHT22;4963;51.444;6.528;2022-12-01T15:33:08;6.00;99.90
9849;DHT22;4963;51.444;6.528;2022-12-01T15:35:36;6.00;99.90
9849;DHT22;4963;51.444;6.528;2022-12-01T15:38:04;6.00;99.90
9849;DHT22;4963;51.444;6.528;2022-12-01T15:40:32;6.00;99.90
9849;DHT22;4963;51.444;6.528;2022-12-01T15:43:00;5.90;99.90
9849;DHT22;4963;51.444;6.528;2022-12-01T15:45:27;5.90;99.90
9849;DHT22;4963;51.444;6.528;2022-12-01T15:47:54;6.00;99.90
9849;DHT22;4963;51.444;6.528;2022-12-01T15:50:28;6.00;99.90
9849;DHT22;4963;51.444;6.528;2022-12-01T15:52:55;5.90;99.90
9849;DHT22;4963;51.444;6.528;2022-12-01T15:55:26;5.90;99.90
9849;DHT22;4963;51.444;6.528;2022-12-01T15:57:54;5.80;99.90
9849;DHT22;4963;51.444;6.528;2022-12-01T16:00:22;5.90;99.90
9849;DHT22;4963;51.444;6.528;2022-12-01T16:02:50;5.80;99.90
9849;DHT22;4963;51.444;6.528;2022-12-01T16:05:21;5.80;99.90
9849;DHT22;4963;51.444;6.528;2022-12-01T16:07:48;5.80;99.90
9849;DHT22;4963;51.444;6.528;2022-12-01T16:10:26;5.80;99.90
9849;DHT22;4963;51.444;6.528;2022-12-01T16:12:56;5.80;99.90
9849;DHT22;4963;51.444;6.528;2022-12-01T16:15:43;5.80;99.90
9849;DHT22;4963;51.444;6.528;2022-12-01T16:18:25;5.80;99.90
9849;DHT22;4963;51.444;6.528;2022-12-01T16:21:01;5.80;99.90
9849;DHT22;4963;51.444;6.528;2022-12-01T16:23:28;5.80;99.90
9849;DHT22;4963;51.444;6.528;2022-12-01T16:25:55;5.80;99.90
9849;DHT22;4963;51.444;6.528;2022-12-01T16:28:26;5.80;99.90
9849;DHT22;4963;51.444;6.528;2022-12-01T16:30:53;5.80;99.90
9849;DHT22;4963;51.444;6.528;2022-12-01T16:33:21;5.80;99.90
9849;DHT22;4963;51.444;6.528;2022-12-01T16:35:50;5.70;99.90
9849;DHT22;4963;51.444;6.528;2022-12-01T16:38:18;5.70;99.90
9849;DHT22;4963;51.444;6.528;2022-12-01T16:40:48;5.80;99.90
9849;DHT22;4963;51.444;6.528;2022-12-01T16:43:17;5.70;99.90